Time;durP1;ratioP1;P1;durP2;ratioP2;P2;SDS_P1;SDS_P2;PMS_P1;PMS_P2;Temp;Humidity;BMP_temperature;BMP_pressure;BME280_temperature;BME280_humidity;BME280_pressure;Samples;Min_cycle;Max_cycle;Signal;HPM_P1;HPM_P2
2024/01/25 00:00:21;;;;;;;59.35;19.02;;;8.60;95.10;;;;;;5039847;28;20037;-75
2024/01/25 00:02:47;;;;;;;61.92;18.02;;;8.60;95.10;;;;;;5035961;28;20025;-75
2024/01/25 00:05:13;;;;;;;48.03;15.18;;;8.50;95.10;;;;;;5043684;28;20115;-74
2024/01/25 00:07:48;;;;;;;52.60;14.27;;;8.60;95.20;;;;;;5049321;28;20049;-74
2024/01/25 00:10:16;;;;;;;46.50;12.48;;;8.50;95.20;;;;;;5034091;28;20099;-73
2024/01/25 00:12:42;;;;;;;55.00;13.07;;;8.50;95.20;;;;;;5040186;28;20029;-74
2024/01/25 00:15:09;;;;;;;48.45;11.43;;;8.40;95.20;;;;;;5037829;28;20521;-74
2024/01/25 00:17:34;;;;;;;55.67;12.13;;;8.40;95.30;;;;;;5031907;28;20056;-75
2024/01/25 00:20:00;;;;;;;57.42;11.18;;;8.30;95.30;;;;;;5033308;28;20052;-79
2024/01/25 00:22:26;;;;;;;48.47;11.13;;;8.30;95.30;;;;;;5040745;28;20048;-75
2024/01/25 00:24:51;;;;;;;50.78;11.40;;;8.30;95.30;;;;;;5038656;28;20480;-75
2024/01/25 00:27:17;;;;;;;48.60;10.02;;;8.20;95.40;;;;;;5039206;28;20020;-74
2024/01/25 00:29:43;;;;;;;49.15;10.90;;;8.20;95.40;;;;;;5038989;28;20101;-74
2024/01/25 00:32:09;;;;;;;58.80;12.10;;;8.20;95.40;;;;;;5037116;28;20331;-75
2024/01/25 00:34:35;;;;;;;53.33;11.60;;;8.10;95.40;;;;;;5035529;28;20037;-75
2024/01/25 00:37:01;;;;;;;43.83;8.55;;;8.10;95.50;;;;;;5042553;28;20053;-75
2024/01/25 00:39:27;;;;;;;47.90;10.20;;;8.10;95.50;;;;;;5042299;28;20032;-77
2024/01/25 00:41:58;;;;;;;44.97;10.82;;;8.00;95.60;;;;;;5061478;28;20028;-77
2024/01/25 00:44:24;;;;;;;43.35;10.13;;;8.00;95.70;;;;;;5049583;28;20049;-74
2024/01/25 00:46:52;;;;;;;55.28;11.82;;;8.00;95.70;;;;;;5038886;28;20013;-75
2024/01/25 00:49:18;;;;;;;42.25;9.75;;;7.90;95.80;;;;;;5040877;28;20349;-75
2024/01/25 00:51:46;;;;;;;49.72;11.00;;;7.90;95.80;;;;;;5034663;28;20024;-74
2024/01/25 00:54:13;;;;;;;51.67;11.13;;;7.90;95.80;;;;;;5039005;28;20041;-75
2024/01/25 00:56:39;;;;;;;59.75;12.30;;;7.90;95.80;;;;;;5053821;28;20370;-75
2024/01/25 00:59:05;;;;;;;63.97;11.60;;;7.90;95.90;;;;;;5023747;28;20042;-75
2024/01/25 01:01:31;;;;;;;48.67;9.43;;;7.90;96.00;;;;;;5036941;28;20040;-76
2024/01/25 01:03:58;;;;;;;50.42;12.07;;;7.90;95.90;;;;;;5036349;28;20048;-75
2024/01/25 01:06:25;;;;;;;51.70;11.07;;;7.80;95.90;;;;;;5040438;28;20062;-74
2024/01/25 01:08:51;;;;;;;50.38;12.32;;;7.80;95.90;;;;;;5033696;28;20064;-74
2024/01/25 01:11:17;;;;;;;57.28;10.95;;;7.80;96.00;;;;;;5040439;28;20017;-75
2024/01/25 01:13:42;;;;;;;50.47;12.00;;;7.80;96.00;;;;;;5037600;28;20020;-74
2024/01/25 01:16:08;;;;;;;50.58;11.15;;;7.70;96.00;;;;;;5038574;28;20078;-74
2024/01/25 01:18:34;;;;;;;48.95;11.43;;;7.70;96.10;;;;;;5037162;28;20029;-75
2024/01/25 01:21:00;;;;;;;58.97;12.95;;;7.70;96.10;;;;;;5036078;28;20025;-74
2024/01/25 01:23:25;;;;;;;55.33;12.15;;;7.60;96.20;;;;;;5042967;28;20020;-75
2024/01/25 01:25:51;;;;;;;65.30;12.98;;;7.60;96.20;;;;;;5030262;28;20104;-75
2024/01/25 01:28:16;;;;;;;59.03;11.90;;;7.60;96.30;;;;;;5034403;28;20025;-75
2024/01/25 01:30:42;;;;;;;56.90;12.00;;;7.60;96.40;;;;;;5041675;28;20037;-74
2024/01/25 01:33:10;;;;;;;50.15;10.30;;;7.60;96.40;;;;;;5039781;28;20029;-75
2024/01/25 01:35:36;;;;;;;39.60;10.65;;;7.50;96.40;;;;;;5037721;28;20116;-76
2024/01/25 01:38:02;;;;;;;49.65;11.25;;;7.50;96.50;;;;;;5034577;28;20550;-75
2024/01/25 01:40:28;;;;;;;54.17;13.35;;;7.50;96.50;;;;;;5037431;28;20037;-75
2024/01/25 01:43:02;;;;;;;53.33;12.77;;;7.40;96.50;;;;;;5034875;28;20025;-75
2024/01/25 01:45:28;;;;;;;45.10;11.85;;;7.40;96.60;;;;;;5026896;28;20033;-80
2024/01/25 01:47:55;;;;;;;44.17;10.90;;;7.40;96.60;;;;;;5033701;28;20017;-78
2024/01/25 01:50:21;;;;;;;44.72;11.13;;;7.30;96.50;;;;;;5046449;28;20044;-75
2024/01/25 01:52:49;;;;;;;61.55;12.55;;;7.30;96.60;;;;;;5032909;28;20017;-75
2024/01/25 01:55:15;;;;;;;41.50;10.63;;;7.20;96.70;;;;;;5046361;28;20028;-75
2024/01/25 01:57:41;;;;;;;52.85;12.00;;;7.20;96.60;;;;;;5038668;28;20025;-75
2024/01/25 02:00:09;;;;;;;55.60;12.75;;;7.20;96.60;;;;;;5050857;28;20032;-75
2024/01/25 02:02:35;;;;;;;49.67;11.18;;;7.20;96.60;;;;;;5039025;28;20107;-75
2024/01/25 02:05:01;;;;;;;36.50;9.85;;;7.10;96.60;;;;;;5036159;28;20041;-75
2024/01/25 02:07:27;;;;;;;48.88;10.88;;;7.10;96.70;;;;;;5043451;28;20563;-74
2024/01/25 02:09:53;;;;;;;42.30;12.18;;;7.00;96.70;;;;;;5043571;28;20040;-75
2024/01/25 02:12:19;;;;;;;50.70;16.23;;;7.00;96.80;;;;;;5032337;28;20450;-75
2024/01/25 02:14:46;;;;;;;56.17;17.27;;;7.00;96.90;;;;;;5037215;28;20080;-75
2024/01/25 02:17:11;;;;;;;53.00;20.05;;;7.00;96.90;;;;;;5038891;28;20026;-75
2024/01/25 02:19:37;;;;;;;66.20;21.98;;;6.90;96.80;;;;;;5036437;28;20116;-76
2024/01/25 02:22:05;;;;;;;65.20;26.05;;;6.90;96.90;;;;;;5037141;28;20373;-75
2024/01/25 02:24:31;;;;;;;57.05;26.67;;;6.90;96.80;;;;;;5031702;28;20021;-77
2024/01/25 02:26:56;;;;;;;68.55;23.25;;;6.90;96.90;;;;;;5036968;28;20421;-75
2024/01/25 02:29:22;;;;;;;54.53;19.60;;;6.90;96.90;;;;;;5033759;28;20036;-75
2024/01/25 02:31:48;;;;;;;61.17;18.48;;;6.80;96.90;;;;;;5038189;28;20505;-74
2024/01/25 02:34:14;;;;;;;46.50;14.52;;;6.80;97.00;;;;;;5037621;28;20037;-75
2024/01/25 02:36:39;;;;;;;52.08;14.73;;;6.80;97.10;;;;;;5035442;28;20021;-74
2024/01/25 02:39:05;;;;;;;44.60;11.82;;;6.80;97.10;;;;;;5040226;28;20041;-75
2024/01/25 02:41:32;;;;;;;63.08;13.90;;;6.80;97.20;;;;;;5036927;28;20017;-75
2024/01/25 02:43:58;;;;;;;46.83;10.85;;;6.80;97.20;;;;;;5041933;28;20047;-75
2024/01/25 02:46:23;;;;;;;56.58;11.10;;;6.80;97.20;;;;;;5035762;28;20026;-75
2024/01/25 02:48:49;;;;;;;46.35;11.50;;;6.80;97.20;;;;;;5038778;28;20029;-75
2024/01/25 02:51:15;;;;;;;40.53;10.70;;;6.80;97.20;;;;;;5025568;28;20029;-75
2024/01/25 02:53:41;;;;;;;48.92;11.07;;;6.70;97.20;;;;;;5037844;28;20013;-75
2024/01/25 02:56:07;;;;;;;48.35;11.13;;;6.70;97.30;;;;;;5035915;28;20347;-75
2024/01/25 02:58:33;;;;;;;46.55;10.50;;;6.70;97.30;;;;;;5023298;28;20029;-74
2024/01/25 03:00:58;;;;;;;40.15;10.35;;;6.60;97.20;;;;;;5039840;28;20362;-76
2024/01/25 03:03:24;;;;;;;40.85;9.63;;;6.60;97.20;;;;;;5044187;28;20017;-75
2024/01/25 03:05:51;;;;;;;44.22;10.18;;;6.50;97.20;;;;;;5038733;28;20041;-75
2024/01/25 03:08:17;;;;;;;44.25;9.57;;;6.50;97.30;;;;;;5038694;28;20100;-74
2024/01/25 03:10:43;;;;;;;40.78;9.43;;;6.40;97.30;;;;;;5043126;28;20116;-74
2024/01/25 03:13:09;;;;;;;36.33;8.40;;;6.40;97.30;;;;;;5046019;28;20358;-75
2024/01/25 03:15:34;;;;;;;53.10;12.18;;;6.40;97.30;;;;;;5026079;28;20489;-75
2024/01/25 03:18:00;;;;;;;50.03;11.13;;;6.30;97.30;;;;;;5035252;28;20017;-74
2024/01/25 03:20:26;;;;;;;49.08;11.43;;;6.30;97.30;;;;;;5039837;28;20033;-75
2024/01/25 03:22:51;;;;;;;54.03;11.90;;;6.20;97.40;;;;;;5037252;28;20033;-74
2024/01/25 03:25:17;;;;;;;38.60;9.75;;;6.30;97.50;;;;;;5032854;28;20538;-75
2024/01/25 03:27:43;;;;;;;45.42;10.27;;;6.40;97.60;;;;;;5038148;28;20051;-75
2024/01/25 03:30:09;;;;;;;42.83;8.50;;;6.30;97.40;;;;;;5033130;28;20045;-75
2024/01/25 03:32:36;;;;;;;48.50;10.30;;;6.30;97.30;;;;;;5042226;28;20045;-75
2024/01/25 03:35:01;;;;;;;52.85;10.65;;;6.20;97.30;;;;;;5030614;28;20041;-75
2024/01/25 03:37:27;;;;;;;34.10;8.63;;;6.10;97.30;;;;;;5035214;28;20169;-75
2024/01/25 03:39:53;;;;;;;43.38;10.50;;;6.10;97.30;;;;;;5035220;28;20120;-75
2024/01/25 03:42:18;;;;;;;48.25;10.82;;;6.00;97.30;;;;;;5028826;28;20055;-75
2024/01/25 03:44:44;;;;;;;37.58;9.70;;;6.00;97.40;;;;;;5037293;28;20025;-74
2024/01/25 03:47:10;;;;;;;36.58;9.27;;;5.90;97.30;;;;;;5044153;28;20085;-75
2024/01/25 03:49:36;;;;;;;38.30;9.05;;;5.90;97.30;;;;;;5047029;28;20033;-75
2024/01/25 03:52:03;;;;;;;40.63;10.25;;;5.90;97.30;;;;;;5036804;28;20347;-77
2024/01/25 03:54:28;;;;;;;31.17;8.73;;;5.80;97.30;;;;;;5043720;28;20036;-77
2024/01/25 03:56:54;;;;;;;36.05;8.82;;;5.80;97.20;;;;;;5035688;28;20021;-75
2024/01/25 03:59:19;;;;;;;38.55;9.15;;;5.80;97.20;;;;;;5044657;28;20037;-75
2024/01/25 04:01:47;;;;;;;47.83;10.20;;;5.70;97.20;;;;;;5034175;28;20029;-74
2024/01/25 04:04:15;;;;;;;30.45;8.10;;;5.70;97.20;;;;;;5033470;28;20439;-75
2024/01/25 04:06:45;;;;;;;39.58;8.73;;;5.60;97.30;;;;;;5039512;28;20445;-75
2024/01/25 04:09:11;;;;;;;39.55;8.30;;;5.60;97.30;;;;;;5037547;28;20037;-75
2024/01/25 04:11:38;;;;;;;42.90;8.63;;;5.60;97.30;;;;;;5032501;28;20032;-75
2024/01/25 04:14:04;;;;;;;35.45;9.35;;;5.60;97.30;;;;;;5035904;28;20025;-75
2024/01/25 04:16:30;;;;;;;38.63;10.05;;;5.60;97.40;;;;;;5039466;28;20022;-75
2024/01/25 04:18:56;;;;;;;36.53;9.77;;;5.60;97.30;;;;;;5034066;28;20045;-75
2024/01/25 04:21:22;;;;;;;41.58;9.25;;;5.60;97.30;;;;;;5041205;28;20408;-74
2024/01/25 04:23:47;;;;;;;37.72;9.55;;;5.60;97.40;;;;;;5042501;28;20024;-74
2024/01/25 04:26:15;;;;;;;35.22;9.80;;;5.60;97.20;;;;;;5036833;28;20066;-74
2024/01/25 04:28:40;;;;;;;37.08;8.75;;;5.50;97.10;;;;;;5035274;28;20029;-74
2024/01/25 04:31:06;;;;;;;33.42;8.38;;;5.40;97.00;;;;;;5042773;28;20500;-75
2024/01/25 04:33:31;;;;;;;34.70;8.85;;;5.40;97.00;;;;;;5041551;28;20539;-77
2024/01/25 04:35:57;;;;;;;31.00;9.18;;;5.30;97.00;;;;;;5039896;28;20052;-75
2024/01/25 04:38:23;;;;;;;32.58;9.02;;;5.30;97.00;;;;;;5037131;28;20335;-75
2024/01/25 04:40:48;;;;;;;42.65;10.20;;;5.30;97.00;;;;;;5037982;28;20091;-75
2024/01/25 04:43:14;;;;;;;37.65;10.13;;;5.30;97.10;;;;;;5044627;28;20433;-74
2024/01/25 04:45:40;;;;;;;48.33;10.88;;;5.30;97.10;;;;;;5036343;28;20505;-80
2024/01/25 04:48:06;;;;;;;38.05;10.15;;;5.30;97.10;;;;;;5040235;28;20449;-75
2024/01/25 04:50:32;;;;;;;38.00;9.65;;;5.30;97.10;;;;;;5042815;28;20037;-75
2024/01/25 04:52:58;;;;;;;38.03;9.48;;;5.30;97.10;;;;;;5039055;28;20037;-74
2024/01/25 04:55:23;;;;;;;38.80;10.30;;;5.30;97.10;;;;;;5042742;28;20040;-74
2024/01/25 04:57:53;;;;;;;38.10;9.63;;;5.30;97.10;;;;;;5046876;28;20044;-75
2024/01/25 05:00:21;;;;;;;41.50;9.60;;;5.30;97.10;;;;;;5040148;28;20021;-74
2024/01/25 05:02:47;;;;;;;32.70;9.15;;;5.30;97.20;;;;;;5033577;28;20048;-75
2024/01/25 05:05:13;;;;;;;36.88;9.70;;;5.30;97.20;;;;;;5054026;28;20040;-73
2024/01/25 05:07:39;;;;;;;44.22;9.55;;;5.30;97.20;;;;;;5043678;28;20025;-73
2024/01/25 05:10:05;;;;;;;36.45;9.93;;;5.40;97.20;;;;;;5050524;28;20036;-75
2024/01/25 05:12:31;;;;;;;50.80;10.90;;;5.40;97.20;;;;;;5058580;28;20025;-73
2024/01/25 05:14:57;;;;;;;39.33;9.50;;;5.40;97.30;;;;;;5046367;28;20440;-74
2024/01/25 05:17:24;;;;;;;43.92;10.07;;;5.40;97.30;;;;;;5054190;28;20021;-73
2024/01/25 05:19:49;;;;;;;44.53;9.73;;;5.40;97.30;;;;;;5047853;28;20036;-73
2024/01/25 05:22:16;;;;;;;31.65;8.43;;;5.50;97.30;;;;;;5042680;28;20017;-77
2024/01/25 05:24:42;;;;;;;40.50;9.98;;;5.50;97.30;;;;;;5044275;28;20505;-77
2024/01/25 05:27:07;;;;;;;34.25;9.35;;;5.50;97.30;;;;;;5045252;28;20021;-76
2024/01/25 05:29:33;;;;;;;38.65;9.30;;;5.50;97.30;;;;;;5042207;28;20106;-75
2024/01/25 05:31:58;;;;;;;36.05;9.32;;;5.50;97.30;;;;;;5043873;28;20450;-76
2024/01/25 05:34:24;;;;;;;44.45;9.38;;;5.40;97.30;;;;;;5044366;28;20357;-76
2024/01/25 05:36:50;;;;;;;43.35;9.48;;;5.40;97.40;;;;;;5043018;28;20048;-75
2024/01/25 05:39:16;;;;;;;42.38;11.20;;;5.60;97.50;;;;;;5029791;28;20393;-76
2024/01/25 05:41:44;;;;;;;38.47;10.02;;;5.60;97.50;;;;;;5041405;28;20457;-76
2024/01/25 05:44:11;;;;;;;44.40;10.38;;;5.50;97.50;;;;;;5037332;28;20396;-75
2024/01/25 05:46:36;;;;;;;44.58;10.77;;;5.50;97.50;;;;;;5036419;28;20079;-75
2024/01/25 05:49:02;;;;;;;33.67;8.50;;;5.40;97.50;;;;;;5038049;28;20045;-79
2024/01/25 05:51:28;;;;;;;44.97;9.80;;;5.40;97.50;;;;;;5031562;28;20318;-75
2024/01/25 05:53:54;;;;;;;44.00;10.98;;;5.40;97.50;;;;;;5033979;28;20041;-75
2024/01/25 05:56:19;;;;;;;35.63;9.40;;;5.40;97.50;;;;;;5044661;28;20025;-75
2024/01/25 05:58:45;;;;;;;45.30;10.40;;;5.40;97.50;;;;;;5045717;28;20025;-75
2024/01/25 06:01:10;;;;;;;47.33;10.95;;;5.40;97.60;;;;;;5048530;28;20037;-75
2024/01/25 06:03:36;;;;;;;48.72;13.55;;;5.50;97.70;;;;;;5048342;28;20111;-75
2024/01/25 06:06:02;;;;;;;44.92;11.77;;;5.50;97.70;;;;;;5041342;28;20021;-75
2024/01/25 06:08:28;;;;;;;40.58;11.75;;;5.50;97.70;;;;;;5041178;28;20747;-75
2024/01/25 06:10:53;;;;;;;40.13;11.85;;;5.60;97.70;;;;;;5039853;27;20041;-75
2024/01/25 06:13:19;;;;;;;48.78;14.00;;;5.60;97.70;;;;;;5038351;28;20029;-75
2024/01/25 06:15:44;;;;;;;48.33;14.00;;;5.60;97.80;;;;;;5037776;28;20032;-76
2024/01/25 06:18:10;;;;;;;49.33;15.30;;;5.60;97.80;;;;;;5038948;28;20061;-75
2024/01/25 06:20:36;;;;;;;47.58;13.73;;;5.70;97.90;;;;;;5039052;28;20021;-75
2024/01/25 06:23:01;;;;;;;55.97;16.55;;;5.70;97.90;;;;;;5034694;28;20100;-75
2024/01/25 06:25:30;;;;;;;46.72;15.60;;;5.80;97.90;;;;;;5030907;28;20034;-75
2024/01/25 06:27:57;;;;;;;50.95;15.68;;;5.80;97.90;;;;;;5030554;28;20104;-75
2024/01/25 06:30:23;;;;;;;50.17;16.35;;;5.80;97.90;;;;;;5047723;28;20068;-78
2024/01/25 06:32:48;;;;;;;39.95;15.95;;;5.90;97.90;;;;;;5042911;28;20013;-73
2024/01/25 06:35:15;;;;;;;46.63;14.88;;;5.90;97.90;;;;;;5025892;28;20128;-74
2024/01/25 06:37:41;;;;;;;51.13;15.50;;;5.90;97.90;;;;;;5040477;28;20111;-78
2024/01/25 06:40:07;;;;;;;41.88;14.15;;;5.90;97.80;;;;;;5031917;28;20197;-74
2024/01/25 06:42:34;;;;;;;39.72;15.10;;;5.90;97.80;;;;;;5025276;28;20104;-73
2024/01/25 06:45:00;;;;;;;35.58;14.95;;;5.90;97.90;;;;;;5033566;28;20036;-73
2024/01/25 06:47:25;;;;;;;39.15;17.05;;;5.90;97.80;;;;;;5041291;28;20032;-73
2024/01/25 06:49:51;;;;;;;36.78;16.85;;;5.90;97.90;;;;;;5034054;28;20041;-73
2024/01/25 06:52:17;;;;;;;37.17;19.15;;;5.90;97.90;;;;;;5032754;28;20041;-74
2024/01/25 06:54:43;;;;;;;37.05;16.90;;;5.90;97.90;;;;;;5040512;28;20075;-75
2024/01/25 06:57:09;;;;;;;37.70;18.23;;;5.90;98.00;;;;;;5042534;28;20024;-73
2024/01/25 06:59:34;;;;;;;31.63;15.32;;;6.00;97.90;;;;;;5036528;28;20100;-78
2024/01/25 07:02:02;;;;;;;28.75;16.00;;;5.90;97.90;;;;;;5033160;28;20033;-73
2024/01/25 07:04:28;;;;;;;25.20;14.23;;;6.00;97.90;;;;;;5042059;28;20037;-73
2024/01/25 07:06:53;;;;;;;33.72;15.48;;;6.00;98.00;;;;;;5041702;28;20051;-75
2024/01/25 07:09:19;;;;;;;24.98;14.88;;;6.00;98.00;;;;;;5044839;28;20041;-75
2024/01/25 07:11:45;;;;;;;35.95;15.77;;;6.00;98.00;;;;;;5050711;28;20032;-75
2024/01/25 07:14:11;;;;;;;48.08;16.13;;;6.00;98.00;;;;;;5036290;28;20033;-75
2024/01/25 07:16:36;;;;;;;28.25;15.10;;;6.10;98.10;;;;;;5040386;28;20104;-75
2024/01/25 07:19:03;;;;;;;29.00;15.75;;;6.10;98.10;;;;;;5041573;28;20033;-75
2024/01/25 07:21:32;;;;;;;27.15;15.73;;;6.10;98.10;;;;;;5035969;28;20017;-75
2024/01/25 07:23:59;;;;;;;38.92;15.95;;;6.10;98.10;;;;;;5051875;28;20178;-76
2024/01/25 07:26:25;;;;;;;26.95;14.73;;;6.10;98.20;;;;;;5056076;28;20016;-75
2024/01/25 07:28:53;;;;;;;24.73;14.57;;;6.10;98.20;;;;;;5050284;28;20041;-76
2024/01/25 07:31:20;;;;;;;33.38;15.50;;;6.20;98.20;;;;;;5035698;28;20021;-76
2024/01/25 07:33:45;;;;;;;30.52;16.42;;;6.20;98.20;;;;;;5041335;28;20040;-75
2024/01/25 07:36:11;;;;;;;27.33;15.55;;;6.20;98.30;;;;;;5046460;28;20080;-75
2024/01/25 07:38:37;;;;;;;26.48;15.77;;;6.30;98.40;;;;;;5035053;28;20063;-76
2024/01/25 07:41:03;;;;;;;31.70;16.45;;;6.30;98.30;;;;;;5041027;28;20068;-74
2024/01/25 07:43:29;;;;;;;26.88;15.98;;;6.30;98.30;;;;;;5039730;28;20018;-75
2024/01/25 07:45:54;;;;;;;25.65;14.80;;;6.30;98.30;;;;;;5045361;28;20036;-75
2024/01/25 07:48:20;;;;;;;25.88;15.23;;;6.40;98.30;;;;;;5044043;28;20450;-75
2024/01/25 07:50:46;;;;;;;29.65;16.13;;;6.40;98.40;;;;;;5043030;28;20457;-75
2024/01/25 07:53:12;;;;;;;35.95;16.95;;;6.40;98.40;;;;;;5031996;28;20099;-75
2024/01/25 07:55:38;;;;;;;31.13;15.63;;;6.40;98.40;;;;;;5039517;28;20029;-76
2024/01/25 07:58:03;;;;;;;32.40;16.73;;;6.50;98.50;;;;;;5040051;28;20366;-73
2024/01/25 08:00:29;;;;;;;32.40;17.23;;;6.50;98.50;;;;;;5051349;28;20044;-73
2024/01/25 08:02:55;;;;;;;40.65;16.92;;;6.60;98.60;;;;;;5047893;28;20021;-72
2024/01/25 08:05:20;;;;;;;32.60;15.55;;;6.60;98.50;;;;;;5047877;28;20025;-73
2024/01/25 08:07:46;;;;;;;30.33;15.88;;;6.60;98.50;;;;;;5039711;28;20500;-73
2024/01/25 08:10:12;;;;;;;29.25;16.63;;;6.60;98.50;;;;;;5045316;28;20074;-73
2024/01/25 08:12:39;;;;;;;33.13;16.30;;;6.60;98.60;;;;;;5042934;28;20087;-72
2024/01/25 08:15:06;;;;;;;32.63;17.23;;;6.60;98.60;;;;;;5037126;28;20037;-72
2024/01/25 08:17:31;;;;;;;35.33;16.45;;;6.70;98.60;;;;;;5032674;28;20473;-71
2024/01/25 08:19:57;;;;;;;38.10;16.02;;;6.70;98.50;;;;;;5049611;28;20049;-73
2024/01/25 08:22:23;;;;;;;32.50;17.40;;;6.80;98.60;;;;;;5041432;28;20029;-73
2024/01/25 08:24:48;;;;;;;34.33;17.27;;;6.80;98.60;;;;;;5036836;28;20029;-72
2024/01/25 08:27:14;;;;;;;48.10;18.17;;;6.80;98.60;;;;;;5038490;28;20509;-73
2024/01/25 08:29:40;;;;;;;35.58;17.63;;;6.90;98.60;;;;;;5037217;28;20043;-72
2024/01/25 08:32:06;;;;;;;39.67;18.83;;;6.90;98.60;;;;;;5038868;28;20112;-72
2024/01/25 08:34:32;;;;;;;34.67;16.70;;;7.00;98.70;;;;;;5038585;28;20136;-72
2024/01/25 08:36:57;;;;;;;37.10;17.00;;;7.10;98.60;;;;;;5038891;28;20095;-72
2024/01/25 08:39:23;;;;;;;35.53;18.20;;;7.10;98.70;;;;;;5014815;28;20048;-71
2024/01/25 08:41:50;;;;;;;38.85;18.85;;;7.20;98.60;;;;;;5037253;28;20029;-72
2024/01/25 08:44:16;;;;;;;36.30;17.52;;;7.20;98.60;;;;;;5039156;28;20028;-72
2024/01/25 08:46:43;;;;;;;41.80;18.63;;;7.20;98.40;;;;;;5038171;28;20013;-71
2024/01/25 08:49:09;;;;;;;41.70;20.60;;;7.30;98.40;;;;;;5038066;28;20070;-71
2024/01/25 08:51:36;;;;;;;40.03;18.92;;;7.30;98.40;;;;;;5033149;28;20404;-72
2024/01/25 08:54:03;;;;;;;38.88;19.45;;;7.40;98.40;;;;;;5040802;28;20044;-72
2024/01/25 08:56:29;;;;;;;42.30;19.88;;;7.40;98.40;;;;;;5040715;28;20025;-72
2024/01/25 08:58:55;;;;;;;41.42;18.10;;;7.50;98.40;;;;;;5034039;28;20037;-71
2024/01/25 09:01:21;;;;;;;42.85;18.70;;;7.50;98.30;;;;;;5039066;28;20430;-72
2024/01/25 09:03:47;;;;;;;43.10;17.27;;;7.50;98.30;;;;;;5040360;28;20119;-72
2024/01/25 09:06:15;;;;;;;40.60;16.70;;;7.50;98.30;;;;;;5037795;28;20101;-71
2024/01/25 09:08:40;;;;;;;38.80;17.80;;;7.60;98.40;;;;;;5035500;28;20071;-72
2024/01/25 09:11:06;;;;;;;34.20;16.35;;;7.60;98.30;;;;;;5033221;28;20021;-72
2024/01/25 09:13:32;;;;;;;39.20;17.65;;;7.60;98.30;;;;;;5038842;28;20338;-72
2024/01/25 09:15:58;;;;;;;36.58;18.67;;;7.70;98.40;;;;;;5033767;28;20465;-72
2024/01/25 09:18:24;;;;;;;38.70;18.45;;;7.80;98.30;;;;;;5035851;28;20031;-72
2024/01/25 09:20:50;;;;;;;36.28;18.25;;;7.80;98.40;;;;;;5035742;28;20021;-76
2024/01/25 09:23:16;;;;;;;37.38;17.75;;;7.90;98.40;;;;;;5032852;28;20010;-72
2024/01/25 09:25:43;;;;;;;37.67;18.38;;;8.00;98.40;;;;;;5037140;28;20505;-72
2024/01/25 09:28:08;;;;;;;38.13;16.95;;;8.10;98.30;;;;;;5040948;28;20025;-72
2024/01/25 09:30:34;;;;;;;40.65;18.77;;;8.10;98.30;;;;;;5043076;28;20041;-73
2024/01/25 09:33:00;;;;;;;38.78;19.38;;;8.10;98.10;;;;;;5045239;28;20040;-74
2024/01/25 09:35:26;;;;;;;50.17;22.95;;;8.20;98.10;;;;;;5031934;28;20476;-74
2024/01/25 09:37:52;;;;;;;45.35;18.92;;;8.20;98.10;;;;;;5039479;28;20084;-73
2024/01/25 09:40:20;;;;;;;44.47;18.15;;;8.20;98.10;;;;;;5044786;28;20032;-73
2024/01/25 09:42:47;;;;;;;47.38;17.55;;;8.20;98.10;;;;;;5030634;28;20116;-73
2024/01/25 09:45:18;;;;;;;41.50;18.20;;;8.30;98.00;;;;;;5026171;28;20433;-74
2024/01/25 09:47:45;;;;;;;37.40;17.27;;;8.40;98.10;;;;;;5034641;28;20028;-73
2024/01/25 09:50:11;;;;;;;39.40;17.25;;;8.40;98.00;;;;;;5031492;28;20045;-73
2024/01/25 09:52:38;;;;;;;38.42;16.90;;;8.40;97.90;;;;;;5036165;28;20016;-73
2024/01/25 09:55:13;;;;;;;41.13;16.15;;;8.40;97.70;;;;;;5027131;28;20204;-73
2024/01/25 09:57:41;;;;;;;43.58;16.55;;;8.30;97.70;;;;;;5032042;28;20496;-73
2024/01/25 10:00:11;;;;;;;35.17;15.27;;;8.40;97.70;;;;;;5037790;28;20075;-74
2024/01/25 10:02:38;;;;;;;33.33;14.32;;;8.40;97.80;;;;;;5033041;28;20087;-73
2024/01/25 10:05:04;;;;;;;33.85;14.00;;;8.50;97.90;;;;;;5028267;28;20127;-74
2024/01/25 10:07:40;;;;;;;33.45;13.90;;;8.50;97.90;;;;;;5033778;28;20021;-73
2024/01/25 10:10:07;;;;;;;44.45;14.23;;;8.60;98.00;;;;;;5035994;28;20029;-73
2024/01/25 10:12:33;;;;;;;40.97;14.55;;;8.60;97.90;;;;;;5036981;28;20489;-73
2024/01/25 10:14:59;;;;;;;46.13;14.85;;;8.70;98.00;;;;;;5033363;28;20461;-73
2024/01/25 10:17:25;;;;;;;39.83;14.38;;;8.70;98.00;;;;;;5036512;28;20032;-77
2024/01/25 10:19:51;;;;;;;38.47;14.55;;;8.70;98.00;;;;;;5038413;28;20032;-74
2024/01/25 10:22:16;;;;;;;38.05;14.75;;;8.80;98.00;;;;;;5029900;28;20362;-73
2024/01/25 10:24:42;;;;;;;58.67;20.00;;;8.80;98.00;;;;;;5018382;28;20033;-74
2024/01/25 10:27:08;;;;;;;43.28;16.60;;;8.80;98.00;;;;;;5041372;28;20104;-73
2024/01/25 10:29:34;;;;;;;46.78;15.55;;;8.80;98.00;;;;;;5038060;28;20083;-72
2024/01/25 10:32:02;;;;;;;49.10;16.10;;;8.90;98.00;;;;;;5030288;28;20057;-73
2024/01/25 10:34:29;;;;;;;49.35;16.67;;;8.90;98.00;;;;;;5030226;28;20057;-73
2024/01/25 10:36:55;;;;;;;53.05;17.88;;;8.90;98.20;;;;;;5037338;28;20017;-74
2024/01/25 10:39:21;;;;;;;51.53;15.32;;;8.90;98.20;;;;;;5033574;28;20431;-73
2024/01/25 10:41:50;;;;;;;42.67;17.60;;;9.00;98.30;;;;;;5033352;28;20464;-73
2024/01/25 10:44:19;;;;;;;44.85;18.23;;;9.10;98.20;;;;;;5034522;28;20420;-73
2024/01/25 10:46:48;;;;;;;46.13;20.65;;;9.10;98.20;;;;;;5036076;28;20021;-74
2024/01/25 10:49:14;;;;;;;35.45;14.88;;;9.10;98.20;;;;;;5039272;28;20048;-73
2024/01/25 10:51:41;;;;;;;34.10;14.15;;;9.10;98.10;;;;;;5023655;28;20021;-73
2024/01/25 10:54:08;;;;;;;35.97;13.98;;;9.10;98.10;;;;;;5035964;28;20025;-73
2024/01/25 10:56:35;;;;;;;45.35;21.70;;;9.20;98.10;;;;;;5038422;28;20372;-72
2024/01/25 10:59:01;;;;;;;57.97;28.70;;;9.20;98.20;;;;;;5040973;28;20522;-72
2024/01/25 11:01:27;;;;;;;36.58;20.00;;;9.30;98.10;;;;;;5032774;28;20032;-73
2024/01/25 11:03:54;;;;;;;34.58;19.10;;;9.30;98.10;;;;;;5040932;28;20191;-73
2024/01/25 11:06:24;;;;;;;53.75;31.83;;;9.30;98.00;;;;;;5034435;28;20032;-73
2024/01/25 11:08:50;;;;;;;31.63;18.85;;;9.30;98.10;;;;;;5036525;28;20053;-73
2024/01/25 11:11:18;;;;;;;32.42;15.98;;;9.30;98.10;;;;;;5034548;28;20026;-71
2024/01/25 11:13:44;;;;;;;27.58;16.65;;;9.40;98.10;;;;;;5036649;28;20052;-74
2024/01/25 11:16:17;;;;;;;28.83;13.93;;;9.40;98.10;;;;;;5040851;28;20021;-73
2024/01/25 11:19:04;;;;;;;27.73;12.20;;;9.40;98.00;;;;;;5044528;28;20519;-73
2024/01/25 11:21:47;;;;;;;21.20;11.25;;;9.30;98.00;;;;;;5038812;28;20102;-73
2024/01/25 11:24:25;;;;;;;25.83;12.68;;;9.40;98.10;;;;;;5035679;28;20033;-73
2024/01/25 11:26:53;;;;;;;27.27;13.63;;;9.40;98.20;;;;;;5035425;28;20343;-74
2024/01/25 11:29:22;;;;;;;24.75;12.07;;;9.40;98.20;;;;;;5033494;28;20041;-73
2024/01/25 11:31:49;;;;;;;21.45;12.10;;;9.40;98.30;;;;;;5037653;28;20150;-75
2024/01/25 11:34:16;;;;;;;21.90;12.15;;;9.40;98.30;;;;;;5027539;28;20038;-75
2024/01/25 11:36:42;;;;;;;23.23;11.15;;;9.40;98.40;;;;;;5029975;28;20128;-72
2024/01/25 11:39:12;;;;;;;23.63;11.02;;;9.50;98.40;;;;;;5044788;28;20044;-73
2024/01/25 11:41:38;;;;;;;24.45;14.05;;;9.40;98.40;;;;;;5035299;28;20074;-73
2024/01/25 11:44:04;;;;;;;25.88;13.32;;;9.50;98.50;;;;;;5037964;28;20128;-72
2024/01/25 11:46:33;;;;;;;23.92;13.50;;;9.60;98.50;;;;;;5034159;28;20081;-73
2024/01/25 11:48:59;;;;;;;22.15;12.75;;;9.60;98.50;;;;;;5030618;28;20042;-72
2024/01/25 11:51:24;;;;;;;26.38;14.48;;;9.70;98.50;;;;;;5037014;28;20390;-72
2024/01/25 11:53:50;;;;;;;21.60;12.18;;;9.70;98.50;;;;;;5035432;28;20045;-72
2024/01/25 11:56:42;;;;;;;22.02;11.90;;;9.80;98.40;;;;;;5030104;28;20402;-72
2024/01/25 11:59:09;;;;;;;21.08;12.52;;;9.80;98.30;;;;;;5029371;28;20376;-75
2024/01/25 12:01:35;;;;;;;26.73;16.02;;;9.90;98.30;;;;;;5040048;28;20040;-72
2024/01/25 12:04:01;;;;;;;21.42;13.75;;;9.80;98.20;;;;;;5035512;28;20057;-72
2024/01/25 12:06:27;;;;;;;21.25;14.57;;;9.90;98.30;;;;;;5031147;28;20031;-73
2024/01/25 12:08:52;;;;;;;21.20;14.43;;;9.90;98.40;;;;;;5041639;28;20088;-74
2024/01/25 12:11:18;;;;;;;20.13;14.35;;;10.00;98.40;;;;;;5040087;28;20049;-73
2024/01/25 12:13:44;;;;;;;18.33;11.93;;;10.00;98.40;;;;;;5040588;28;20106;-72
2024/01/25 12:16:11;;;;;;;16.13;11.90;;;10.00;98.30;;;;;;5042172;28;20028;-72
2024/01/25 12:18:38;;;;;;;17.05;12.27;;;10.10;98.40;;;;;;5035853;28;20067;-73
2024/01/25 12:21:05;;;;;;;14.15;11.40;;;10.10;98.30;;;;;;5042134;28;20013;-76
2024/01/25 12:23:37;;;;;;;18.10;12.35;;;10.10;98.40;;;;;;5035610;28;20105;-75
2024/01/25 12:26:09;;;;;;;19.23;13.57;;;10.10;98.30;;;;;;5040523;28;20481;-74
2024/01/25 12:28:35;;;;;;;19.15;13.45;;;10.20;98.40;;;;;;5038915;28;20020;-73
2024/01/25 12:31:03;;;;;;;19.17;14.18;;;10.20;98.30;;;;;;5036529;28;20338;-75
2024/01/25 12:33:29;;;;;;;18.17;13.57;;;10.30;98.30;;;;;;5043102;28;20021;-73